This demonstration page uses our WeatherBlox Daily Observations layout. Learn more.

38.89511, -77.03637

Hourly Observations for January 26, 2018

Temp ( °F °C ) Dew Point ( °F °C ) Humidity (%) Winds ( mph kmh ) Pressure ( in mb ) Visibility ( mi km ) Precip ( " mm )
12:52 am 00:52 Clear 32 0 21 -6.1 64 64 Calm 30.61 1037 10 16.0934 0 0
1:52 am 01:52 Clear 31 -0.6 22 -5.6 69 69 WSW 3 6 30.63 1037 10 16.0934 0 0
2:52 am 02:52 Clear 31 -0.6 22 -5.6 69 69 Calm 30.64 1038 10 16.0934 0 0
3:52 am 03:52 Clear 30 -1.1 23 -5 75 75 NE 5 7 30.66 1038 10 16.0934 0 0
4:52 am 04:52 Clear 29 -1.7 22 -5.6 75 75 ENE 6 9 30.66 1038 10 16.0934 0 0
5:52 am 05:52 Clear 29 -1.7 22 -5.6 75 75 NE 6 9 30.67 1039 10 16.0934 0 0
6:52 am 06:52 Clear 28 -2.2 22 -5.6 78 78 NE 8 13 30.67 1039 10 16.0934 0 0
7:52 am 07:52 Sunny 30 -1.1 23 -5 75 75 Calm 30.7 1040 10 16.0934 0 0
8:52 am 08:52 Sunny 33 0.6 23 -5 66 66 Calm 30.71 1040 10 16.0934 0 0
9:52 am 09:52 Sunny 37 2.8 24 -4.4 59 59 SE 5 7 30.72 1040 10 16.0934 0 0
10:52 am 10:52 Sunny 40 4.4 21 -6.1 47 47 SSE 9 15 30.72 1040 10 16.0934 0 0
11:52 am 11:52 Mostly Sunny 43 6.1 22 -5.6 43 43 SSW 8 13 30.69 1039 10 16.0934 0 0
12:52 pm 12:52 Partly Cloudy 45 7.2 23 -5 42 42 S 8 13 30.65 1038 10 16.0934 0 0
1:52 pm 13:52 Partly Cloudy 47 8.3 24 -4.4 41 41 S 6 9 30.61 1037 10 16.0934 0 0
2:52 pm 14:52 Mostly Cloudy 50 10 25 -3.9 38 38 S 8 13 30.6 1036 10 16.0934 0 0
3:52 pm 15:52 Mostly Cloudy 48 8.9 27 -2.8 44 44 S 8 13 30.6 1036 10 16.0934 0 0
4:52 pm 16:52 Partly Cloudy 46 7.8 28 -2.2 50 50 S 7 11 30.59 1036 10 16.0934 0 0
5:52 pm 17:52 Mostly Clear 43 6.1 28 -2.2 56 56 SE 7 11 30.59 1036 10 16.0934 0 0
6:52 pm 18:52 Mostly Clear 41 5 28 -2.2 60 60 SE 6 9 30.6 1036 10 16.0934 0 0
7:52 pm 19:52 Partly Cloudy 39 3.9 28 -2.2 65 65 ESE 5 7 30.6 1036 10 16.0934 0 0
8:52 pm 20:52 Mostly Cloudy 39 3.9 29 -1.7 67 67 SSE 3 6 30.59 1036 10 16.0934 0 0
9:52 pm 21:52 Mostly Cloudy 38 3.3 30 -1.1 73 73 S 6 9 30.59 1036 10 16.0934 0 0
10:52 pm 22:52 Mostly Cloudy 38 3.3 31 -0.6 76 76 S 6 9 30.57 1035 10 16.0934 0 0
11:52 pm 23:52 Partly Cloudy 38 3.3 29 -1.7 70 70 S 7 11 30.55 1034 10 16.0934 0 0

Powered by AerisWeather